Map

Track Data

SID SEASON NUMBER BASIN SUBBASIN NAME ISO_TIME NATURE LAT LON WMO_WIND WMO_PRES WMO_AGENCY TRACK_TYPE DIST2LAND LANDFALL IFLAG USA_AGENCY USA_ATCF_ID USA_LAT USA_LON USA_RECORD USA_STATUS USA_WIND USA_PRES USA_SSHS USA_R34_NE USA_R34_SE USA_R34_SW USA_R34_NW USA_R50_NE USA_R50_SE USA_R50_SW USA_R50_NW USA_R64_NE USA_R64_SE USA_R64_SW USA_R64_NW USA_POCI USA_ROCI USA_RMW USA_EYE TOKYO_LAT TOKYO_LON TOKYO_GRADE TOKYO_WIND TOKYO_PRES TOKYO_R50_DIR TOKYO_R50_LONG TOKYO_R50_SHORT TOKYO_R30_DIR TOKYO_R30_LONG TOKYO_R30_SHORT TOKYO_LAND CMA_LAT CMA_LON CMA_CAT CMA_WIND CMA_PRES HKO_LAT HKO_LON HKO_CAT HKO_WIND HKO_PRES NEWDELHI_LAT NEWDELHI_LON NEWDELHI_GRADE NEWDELHI_WIND NEWDELHI_PRES NEWDELHI_CI NEWDELHI_DP NEWDELHI_POCI REUNION_LAT REUNION_LON REUNION_TYPE REUNION_WIND REUNION_PRES REUNION_TNUM REUNION_CI REUNION_RMW REUNION_R34_NE REUNION_R34_SE REUNION_R34_SW REUNION_R34_NW REUNION_R50_NE REUNION_R50_SE REUNION_R50_SW REUNION_R50_NW REUNION_R64_NE REUNION_R64_SE REUNION_R64_SW REUNION_R64_NW BOM_LAT BOM_LON BOM_TYPE BOM_WIND BOM_PRES BOM_TNUM BOM_CI BOM_RMW BOM_R34_NE BOM_R34_SE BOM_R34_SW BOM_R34_NW BOM_R50_NE BOM_R50_SE BOM_R50_SW BOM_R50_NW BOM_R64_NE BOM_R64_SE BOM_R64_SW BOM_R64_NW BOM_ROCI BOM_POCI BOM_EYE BOM_POS_METHOD BOM_PRES_METHOD NADI_LAT NADI_LON NADI_CAT NADI_WIND NADI_PRES WELLINGTON_LAT WELLINGTON_LON WELLINGTON_WIND WELLINGTON_PRES DS824_LAT DS824_LON DS824_STAGE DS824_WIND DS824_PRES TD9636_LAT TD9636_LON TD9636_STAGE TD9636_WIND TD9636_PRES TD9635_LAT TD9635_LON TD9635_WIND TD9635_PRES TD9635_ROCI NEUMANN_LAT NEUMANN_LON NEUMANN_CLASS NEUMANN_WIND NEUMANN_PRES MLC_LAT MLC_LON MLC_CLASS MLC_WIND MLC_PRES USA_GUST BOM_GUST BOM_GUST_PER REUNION_GUST REUNION_GUST_PER USA_SEAHGT USA_SEARAD_NE USA_SEARAD_SE USA_SEARAD_SW USA_SEARAD_NW STORM_SPEED STORM_DIR
2007172N15088 2007 28 NI BB NOT_NAMED 2007-06-20 18:00:00 NR 14.5000 88.4000 main 625 548 O_____________ jtwc_io IO032007 14.5000 88.4000 DB 25 1004 -3 1002 210 50 15 312
2007172N15088 2007 28 NI BB NOT_NAMED 2007-06-20 21:00:00 NR 15.0073 87.8156 main 540 455 P_____________ IO032007 15.0073 87.8156 DB 27 999 -3 999 225 50 16 306
2007172N15088 2007 28 NI BB NOT_NAMED 2007-06-21 00:00:00 TS 15.4000 87.1000 main 455 375 O_____________ jtwc_io IO032007 15.4000 87.1000 TD 30 995 -1 997 240 50 17 291
2007172N15088 2007 28 NI BB NOT_NAMED 2007-06-21 03:00:00 TS 15.6030 86.1922 main 375 308 P_____________ IO032007 15.6030 86.1922 TD 30 994 -1 997 240 42 18 280
2007172N15088 2007 28 NI BB NOT_NAMED 2007-06-21 06:00:00 TS 15.7000 85.3000 main 308 257 O_____________ jtwc_io IO032007 15.7000 85.3000 TD 30 994 -1 997 240 35 15 279
2007172N15088 2007 28 NI BB NOT_NAMED 2007-06-21 09:00:00 TS 15.8294 84.6550 main 257 207 P_____________ IO032007 15.8294 84.6550 TD 30 997 -1 995 245 35 12 280
2007172N15088 2007 28 NI BB NOT_NAMED 2007-06-21 12:00:00 TS 15.9000 84.1000 main 207 150 O_____________ jtwc_io IO032007 15.9000 84.1000 TD 30 1000 -1 993 250 35 11 272
2007172N15088 2007 28 NI BB NOT_NAMED 2007-06-21 15:00:00 TS 15.8723 83.4998 main 150 110 P_____________ IO032007 15.8723 83.4998 TD 30 1000 -1 995 250 35 12 265
2007172N15088 2007 28 NI BB NOT_NAMED 2007-06-21 18:00:00 TS 15.8000 82.9000 main 110 84 O_____________ jtwc_io IO032007 15.8000 82.9000 TD 30 1000 -1 998 250 35 11 265
2007172N15088 2007 28 NI BB NOT_NAMED 2007-06-21 21:00:00 TS 15.7721 82.3228 main 79 63 P_____________ IO032007 15.7721 82.3228 TD 30 1000 -1 998 250 35 12 265
2007172N15088 2007 28 NI BB NOT_NAMED 2007-06-22 00:00:00 TS 15.7000 81.7000 main 63 30 O_____________ jtwc_io IO032007 15.7000 81.7000 TD 30 1000 -1 998 250 35 14 255
2007172N15088 2007 28 NI BB NOT_NAMED 2007-06-22 03:00:00 TS 15.4177 80.9488 main 33 10 P_____________ IO032007 15.4177 80.9488 TD 30 1000 -1 15 255
2007172N15088 2007 28 NI BB NOT_NAMED 2007-06-22 06:00:00 TS 15.3000 80.2000 main 10 0 O_____________ jtwc_io IO032007 15.3000 80.2000 TD 30 1000 -1 14 283
2007172N15088 2007 28 NI BB NOT_NAMED 2007-06-22 09:00:00 TS 15.7173 79.5560 main 0 0 P_____________ IO032007 15.7173 79.5560 TD 27 1002 -1 15 311
2007172N15088 2007 28 NI BB NOT_NAMED 2007-06-22 12:00:00 TS 16.3000 79.0000 main 0 0 O_____________ jtwc_io IO032007 16.3000 79.0000 TD 25 1004 -1 14 313
2007172N15088 2007 28 NI BB NOT_NAMED 2007-06-22 15:00:00 TS 16.6499 78.5045 main 0 0 P_____________ IO032007 16.6499 78.5045 TD 20 1007 -1 11 309
2007172N15088 2007 28 NI BB NOT_NAMED 2007-06-22 18:00:00 NR 17.0000 78.1000 main 0 0 O_____________ jtwc_io IO032007 17.0000 78.1000 DB 15 1010 -3 11 320
2007172N15088 2007 28 NI AS NOT_NAMED 2007-06-22 21:00:00 NR 17.4547 77.7994 main 0 0 P_____________ IO032007 17.4547 77.7994 DB 17 1008 -3 12 330
2007172N15088 2007 28 NI AS NOT_NAMED 2007-06-23 00:00:00 NR 18.0000 77.5000 main 0 0 O_____________ jtwc_io IO032007 18.0000 77.5000 DB 20 1007 -3 14 331
2007172N15088 2007 28 NI AS NOT_NAMED 2007-06-23 03:00:00 NR 18.6649 77.0951 main 0 0 P_____________ IO032007 18.6649 77.0951 DB 20 1007 -3 16 327
2007172N15088 2007 28 NI AS NOT_NAMED 2007-06-23 06:00:00 NR 19.3000 76.6000 main 0 0 O_____________ jtwc_io IO032007 19.3000 76.6000 DB 20 1007 -3 1008 150 15 30 15 317
2007172N15088 2007 28 NI AS NOT_NAMED 2007-06-23 09:00:00 NR 19.7450 76.0221 main 0 0 P_____________ IO032007 19.7450 76.0221 DB 20 1007 -3 14 305
2007172N15088 2007 28 NI AS NOT_NAMED 2007-06-23 12:00:00 NR 20.1000 75.4000 main 0 0 O_____________ jtwc_io IO032007 20.1000 75.4000 DB 20 1007 -3 14 303
2007172N15088 2007 28 NI AS NOT_NAMED 2007-06-23 15:00:00 NR 20.4722 74.8073 main 0 0 P_____________ IO032007 20.4722 74.8073 DB 20 1007 -3 13 302
2007172N15088 2007 28 NI AS NOT_NAMED 2007-06-23 18:00:00 NR 20.8000 74.2000 main 0 0 O_____________ jtwc_io IO032007 20.8000 74.2000 DB 20 1007 -3 13 298
2007172N15088 2007 28 NI AS NOT_NAMED 2007-06-23 21:00:00 NR 21.0873 73.5574 main 0 0 P_____________ IO032007 21.0873 73.5574 DB 20 1007 -3 13 292
2007172N15088 2007 28 NI AS NOT_NAMED 2007-06-24 00:00:00 NR 21.3000 72.9000 main 0 0 O_____________ jtwc_io IO032007 21.3000 72.9000 DB 20 1007 -3 13 285
2007172N15088 2007 28 NI AS NOT_NAMED 2007-06-24 03:00:00 NR 21.4073 72.2419 main 10 0 P_____________ IO032007 21.4073 72.2419 DB 22 1005 -3 12 279
2007172N15088 2007 28 NI AS NOT_NAMED 2007-06-24 06:00:00 TS 21.5000 71.6000 main 0 0 O_____________ jtwc_io IO032007 21.5000 71.6000 TD 25 1004 -1 12 284
2007172N15088 2007 28 NI AS NOT_NAMED 2007-06-24 09:00:00 TS 21.6997 70.9927 main 0 0 P_____________ IO032007 21.6997 70.9927 TD 22 1005 -1 12 290
2007172N15088 2007 28 NI AS NOT_NAMED 2007-06-24 12:00:00 NR 21.9000 70.4000 main 0 0 O_____________ jtwc_io IO032007 21.9000 70.4000 DB 20 1007 -3 12 286
2007172N15088 2007 28 NI AS NOT_NAMED 2007-06-24 15:00:00 NR 22.0148 69.7997 main 0 0 P_____________ IO032007 22.0148 69.7997 DB 20 1007 -3 11 280
2007172N15088 2007 28 NI AS NOT_NAMED 2007-06-24 18:00:00 TS 22.1000 69.2000 main 0 0 O_____________ jtwc_io IO032007 22.1000 69.2000 TD 20 1007 -1 1008 170 40 12 278
2007172N15088 2007 28 NI AS NOT_NAMED 2007-06-24 21:00:00 TS 22.1701 68.5622 main 32 32 P_____________ IO032007 22.1701 68.5622 TD 25 1003 -1 1008 170 40 11 280
2007172N15088 2007 28 NI AS NOT_NAMED 2007-06-25 00:00:00 TS 22.3000 68.0000 main 92 92 O_____________ jtwc_io IO032007 22.3000 68.0000 TD 30 1000 -1 1008 170 40 11 303
2007172N15088 2007 28 NI AS NOT_NAMED 2007-06-25 03:00:00 TS 22.7497 67.5899 25 992 newdelhi main 116 80 P___O_________ IO032007 22.5621 67.6124 TD 32 996 -1 1002 135 40 23.5000 67.5000 D 25 992 1.50000 4 10 324
2007172N15088 2007 28 NI AS NOT_NAMED 2007-06-25 06:00:00 TS 23.1000 67.3667 25 992 newdelhi main 80 73 O___O_________ jtwc_io IO032007 22.9000 67.3000 TS 35 992 0 997 100 40 23.5000 67.5000 D 25 992 1.50000 4 8 316
2007172N15088 2007 28 NI AS NOT_NAMED 2007-06-25 09:00:00 TS 23.3486 66.9671 25 990 newdelhi main 82 82 P___O_________ IO032007 23.2350 66.9424 TS 35 994 0 997 110 40 23.5000 67.0000 D 25 990 1.50000 4 9 301
2007172N15088 2007 28 NI AS NOT_NAMED 2007-06-25 12:00:00 TS 23.5500 66.5500 30 988 newdelhi main 92 97 O___O_________ jtwc_io IO032007 23.6000 66.6000 TS 35 996 0 997 120 40 23.5000 66.5000 DD 30 988 2.00000 5 7 308
2007172N15088 2007 28 NI AS NOT_NAMED 2007-06-25 15:00:00 TS 23.7537 66.3962 30 988 newdelhi main 104 104 P___O_________ IO032007 24.0074 66.2924 TS 40 992 0 997 120 40 23.5000 66.5000 DD 30 988 2.00000 5 7 313
2007172N15088 2007 28 NI AS NOT_NAMED 2007-06-25 18:00:00 TS 24.0143 66.0000 30 988 newdelhi main 114 98 O___O_________ jtwc_io IO032007 24.4000 66.0000 TS 45 989 0 75 100 100 70 997 120 40 23.5000 66.0000 DD 30 988 2.00000 5 8 317
2007172N15088 2007 28 NI AS NOT_NAMED 2007-06-25 21:00:00 TS 24.3047 65.8296 35 986 newdelhi main 106 59 P___O_________ IO032007 24.7071 65.7443 TS 47 987 0 75 100 100 70 997 120 40 23.5000 66.0000 CS 35 986 2.50000 6 10 322
2007172N15088 2007 28 NI AS NOT_NAMED 2007-06-26 00:00:00 TS 24.8000 65.3200 35 988 newdelhi main 56 11 O___O_________ jtwc_io IO032007 25.0000 65.4000 TS 50 985 0 75 100 100 70 997 120 40 24.0000 65.0000 CS 35 988 2.50000 6 14 319
2007172N15088 2007 28 NI AS NOT_NAMED 2007-06-26 03:00:00 TS 25.3578 64.8379 main 0 0 P_____________ IO032007 25.3578 64.8379 TS 50 985 0 75 100 100 70 997 120 40 14 312
2007172N15088 2007 28 NI AS NOT_NAMED 2007-06-26 06:00:00 TS 25.7000 64.2000 main 0 0 O_____________ jtwc_io IO032007 25.7000 64.2000 TS 50 985 0 75 100 100 70 997 120 40 13 300
2007172N15088 2007 28 NI AS NOT_NAMED 2007-06-26 09:00:00 TS 25.9951 63.5976 main 0 0 P_____________ IO032007 25.9951 63.5976 TS 45 989 0 75 100 100 70 997 120 40 11 297
2007172N15088 2007 28 NI AS NOT_NAMED 2007-06-26 12:00:00 TS 26.2000 63.1000 main 0 0 O_____________ jtwc_io IO032007 26.2000 63.1000 TS 40 993 0 75 100 100 70 997 120 40 8 286
2007172N15088 2007 28 NI AS NOT_NAMED 2007-06-26 15:00:00 TS 26.2197 62.7447 main 0 0 P_____________ IO032007 26.2197 62.7447 TS 35 996 0 37 50 50 35 999 120 42 5 283
2007172N15088 2007 28 NI AS NOT_NAMED 2007-06-26 18:00:00 TS 26.3000 62.6000 main 0 0 O_____________ jtwc_io IO032007 26.3000 62.6000 TD 30 1000 -1 1001 120 45 5 351
2007172N15088 2007 28 NI AS NOT_NAMED 2007-06-26 21:00:00 TS 26.7124 62.6598 main 0 0 P_____________ IO032007 26.7124 62.6598 TD 27 1002 -1 1003 120 45 9 17
2007172N15088 2007 28 NI AS NOT_NAMED 2007-06-27 00:00:00 TS 27.2000 62.9000 main 0 0 O_____________ jtwc_io IO032007 27.2000 62.9000 TD 25 1005 -1 1006 120 45 10 34
2007172N15088 2007 28 NI AS NOT_NAMED 2007-06-27 03:00:00 TS 27.5154 63.2722 main 0 0 P_____________ IO032007 27.5154 63.2722 TD 22 1006 -1 9 46
2007172N15088 2007 28 NI AS NOT_NAMED 2007-06-27 06:00:00 NR 27.8000 63.6000 main 0 0 O_____________ jtwc_io IO032007 27.8000 63.6000 DB 20 1007 -3 7 30
2007172N15088 2007 28 NI AS NOT_NAMED 2007-06-27 09:00:00 NR 28.1323 63.6805 main 0 0 P_____________ IO032007 28.1323 63.6805 DB 20 1007 -3 7 0
2007172N15088 2007 28 NI AS NOT_NAMED 2007-06-27 12:00:00 NR 28.5000 63.6000 main 0 O_____________ jtwc_io IO032007 28.5000 63.6000 DB 20 1007 -3 8 350

About IBTrACS Database

This database is a web-friendly format of International Best Track Archive for Climate Stewardship (IBTrACS), a global best track data archive curated by NOAA dating back to 1842.

Updated: 2021-10-21